createdAt,value
2016-04-07T00:00:40.729Z,3
2016-04-07T00:03:50.877Z,2
2016-04-07T00:07:09.716Z,3
2016-04-07T00:10:11.927Z,3
2016-04-07T00:13:23.482Z,3
2016-04-07T00:16:35.123Z,3
2016-04-07T00:19:47.967Z,3
2016-04-07T00:23:06.973Z,3
2016-04-07T00:26:09.132Z,3
2016-04-07T00:29:21.877Z,3
2016-04-07T00:32:34.802Z,3
2016-04-07T00:35:45.143Z,3
2016-04-07T00:39:00.877Z,3
2016-04-07T00:42:08.870Z,3
2016-04-07T00:45:10.770Z,3
2016-04-07T00:48:20.591Z,2
2016-04-07T00:51:31.756Z,3
2016-04-07T00:54:44.498Z,3
2016-04-07T00:57:53.475Z,2
2016-04-07T01:01:10.017Z,3
2016-04-07T01:04:11.775Z,3
2016-04-07T01:07:22.658Z,3
2016-04-07T01:10:35.213Z,3
2016-04-07T01:13:47.674Z,3
2016-04-07T01:17:06.465Z,3
2016-04-07T01:20:08.271Z,3
2016-04-07T01:23:17.717Z,3
2016-04-07T01:26:30.084Z,3
2016-04-07T01:29:42.842Z,3
2016-04-07T01:32:52.897Z,3
2016-04-07T01:36:05.408Z,3
2016-04-07T01:39:17.932Z,3
2016-04-07T01:42:27.783Z,3
2016-04-07T01:45:40.370Z,3
2016-04-07T01:48:53.049Z,3
2016-04-07T01:52:05.576Z,3
2016-04-07T01:55:17.615Z,3
2016-04-07T01:58:30.358Z,3
2016-04-07T02:01:39.913Z,3
2016-04-07T02:04:49.577Z,3
2016-04-07T02:08:08.463Z,3
2016-04-07T02:11:10.127Z,3
2016-04-07T02:14:19.260Z,3
2016-04-07T02:17:31.424Z,3
2016-04-07T02:20:41.510Z,3
2016-04-07T02:23:50.815Z,3
2016-04-07T02:27:07.779Z,3
2016-04-07T02:30:09.554Z,3
2016-04-07T02:33:20.249Z,3
2016-04-07T02:36:30.164Z,3
2016-04-07T02:39:39.452Z,3
2016-04-07T02:42:51.991Z,3
2016-04-07T02:46:08.705Z,3
2016-04-07T02:49:10.479Z,3
2016-04-07T02:52:23.081Z,3
2016-04-07T02:55:35.355Z,3
2016-04-07T02:58:43.831Z,3
2016-04-07T03:02:02.405Z,3
2016-04-07T03:05:09.992Z,3
2016-04-07T03:08:11.734Z,3
2016-04-07T03:11:21.117Z,3
2016-04-07T03:14:30.046Z,3
2016-04-07T03:17:42.570Z,3
2016-04-07T03:20:54.766Z,3
2016-04-07T03:24:07.526Z,3
2016-04-07T03:27:19.940Z,3
2016-04-07T03:30:31.027Z,3
2016-04-07T03:33:43.504Z,3
2016-04-07T03:37:02.250Z,3
2016-04-07T03:40:10.148Z,3
2016-04-07T03:43:11.874Z,2
2016-04-07T03:46:24.430Z,2
2016-04-07T03:49:36.687Z,3
2016-04-07T03:52:47.351Z,3
2016-04-07T03:56:07.050Z,4
2016-04-07T03:59:07.558Z,2
2016-04-07T04:02:19.644Z,3
2016-04-07T04:05:31.497Z,7
2016-04-07T04:08:43.833Z,12
2016-04-07T04:12:02.672Z,19
2016-04-07T04:15:10.430Z,28
2016-04-07T04:18:12.141Z,42
2016-04-07T04:21:21.680Z,60
2016-04-07T04:24:32.673Z,83
2016-04-07T04:27:44.852Z,110
2016-04-07T04:30:54.844Z,140
2016-04-07T04:34:10.512Z,192
2016-04-07T04:37:12.191Z,269
2016-04-07T04:40:21.606Z,337
2016-04-07T04:43:31.066Z,436
2016-04-07T04:46:43.966Z,521
2016-04-07T04:50:02.474Z,605
2016-04-07T04:53:10.266Z,709
2016-04-07T04:56:11.977Z,632
2016-04-07T04:59:21.985Z,645
2016-04-07T05:02:34.134Z,593
2016-04-07T05:05:46.658Z,1108
2016-04-07T05:09:02.837Z,691
2016-04-07T05:12:10.755Z,990
2016-04-07T05:15:12.810Z,1613
2016-04-07T05:18:24.833Z,1745
2016-04-07T05:21:33.779Z,1702
2016-04-07T05:24:46.193Z,1647
2016-04-07T05:28:02.842Z,1815
2016-04-07T05:31:10.681Z,2295
2016-04-07T05:34:12.454Z,2478
2016-04-07T05:37:23.103Z,3684
2016-04-07T05:40:35.720Z,3711
2016-04-07T05:43:48.072Z,3566
2016-04-07T05:47:07.067Z,2825
2016-04-07T05:50:08.857Z,2822
2016-04-07T05:53:21.021Z,2718
2016-04-07T05:56:33.280Z,3429
2016-04-07T05:59:46.037Z,3948
2016-04-07T06:02:55.451Z,4436
2016-04-07T06:06:08.118Z,4989
2016-04-07T06:09:21.288Z,5104
2016-04-07T06:12:32.092Z,4942
2016-04-07T06:15:41.757Z,4487
2016-04-07T06:18:54.562Z,5059
2016-04-07T06:22:11.448Z,5339
2016-04-07T06:25:13.284Z,3385
2016-04-07T06:28:25.495Z,2536
2016-04-07T06:31:37.612Z,2309
2016-04-07T06:34:50.105Z,2082
2016-04-07T06:38:08.569Z,2095
2016-04-07T06:41:10.280Z,1955
2016-04-07T06:44:20.804Z,2412
2016-04-07T06:47:30.858Z,2464
2016-04-07T06:50:43.274Z,2571
2016-04-07T06:53:53.827Z,3221
2016-04-07T06:57:06.085Z,2585
2016-04-07T07:00:18.893Z,2415
2016-04-07T07:03:31.417Z,2741
2016-04-07T07:06:44.145Z,3110
2016-04-07T07:09:53.121Z,3569
2016-04-07T07:13:11.725Z,3853
2016-04-07T07:16:13.578Z,3906
2016-04-07T07:19:26.257Z,4865
2016-04-07T07:22:37.624Z,5929
2016-04-07T07:25:47.570Z,7220
2016-04-07T07:29:03.391Z,8190
2016-04-07T07:32:11.480Z,9288
2016-04-07T07:35:13.509Z,8707
2016-04-07T07:38:26.502Z,10957
2016-04-07T07:41:37.717Z,10925
2016-04-07T07:44:50.663Z,11427
2016-04-07T07:48:09.831Z,8393
2016-04-07T07:51:11.604Z,7381
2016-04-07T07:54:21.987Z,6503
2016-04-07T07:57:34.260Z,6023
2016-04-07T08:00:44.535Z,6461
2016-04-07T08:04:03.293Z,5337
2016-04-07T08:07:11.084Z,6457
2016-04-07T08:10:12.843Z,8809
2016-04-07T08:13:25.584Z,11372
2016-04-07T08:16:35.500Z,12896
2016-04-07T08:19:48.367Z,9994
2016-04-07T08:23:05.078Z,2314
2016-04-07T08:26:07.166Z,4451
2016-04-07T08:29:17.425Z,9859
2016-04-07T08:32:30.277Z,13446
2016-04-07T08:35:42.175Z,14860
2016-04-07T08:38:55.122Z,560
2016-04-07T08:42:06.443Z,12461
2016-04-07T08:45:19.641Z,384
2016-04-07T08:48:29.399Z,11265
2016-04-07T08:51:42.437Z,384
2016-04-07T08:54:56.196Z,496
2016-04-07T08:58:10.378Z,384
2016-04-07T09:01:22.731Z,384
2016-04-07T09:04:36.848Z,384
2016-04-07T09:11:08.007Z,4757
2016-04-07T09:14:22.328Z,7284
2016-04-07T09:17:36.852Z,384
2016-04-07T09:20:51.453Z,3599
2016-04-07T09:24:10.920Z,8264
2016-04-07T09:27:15.366Z,1611
2016-04-07T09:30:30.086Z,11150
2016-04-07T09:33:44.619Z,5832
2016-04-07T09:37:04.813Z,4846
2016-04-07T09:40:07.046Z,384
2016-04-07T09:43:18.109Z,3260
2016-04-07T09:46:30.041Z,1432
2016-04-07T09:49:41.597Z,384
2016-04-07T09:52:52.574Z,384
2016-04-07T09:56:09.429Z,12236
2016-04-07T09:59:12.108Z,6276
2016-04-07T10:02:24.053Z,14227
2016-04-07T10:05:34.765Z,9208
2016-04-07T10:08:45.241Z,12520
2016-04-07T10:11:55.453Z,8770
2016-04-07T10:15:07.992Z,10289
2016-04-07T10:18:20.159Z,12789
2016-04-07T10:21:30.402Z,14914
2016-04-07T10:24:43.941Z,13393
2016-04-07T10:28:03.199Z,13574
2016-04-07T10:31:12.037Z,11664
2016-04-07T10:34:14.640Z,9666
2016-04-07T10:37:25.367Z,9694
2016-04-07T10:40:38.233Z,8878
2016-04-07T10:43:51.508Z,8855
2016-04-07T10:47:10.300Z,10190
2016-04-07T10:50:12.620Z,8541
2016-04-07T10:53:23.488Z,7283
2016-04-07T10:56:36.558Z,9531
2016-04-07T10:59:48.207Z,10720
2016-04-07T11:03:05.793Z,8127
2016-04-07T11:06:08.192Z,5514
2016-04-07T11:09:21.014Z,6286
2016-04-07T11:12:31.023Z,7703
2016-04-07T11:15:44.125Z,5330
2016-04-07T11:18:57.274Z,4378
2016-04-07T11:22:09.206Z,3696
2016-04-07T11:25:20.527Z,2767
2016-04-07T11:28:31.051Z,2306
2016-04-07T11:31:43.855Z,2367
2016-04-07T11:34:56.817Z,2126
2016-04-07T11:38:09.562Z,2030
2016-04-07T11:41:22.554Z,3053
2016-04-07T11:44:33.765Z,2616
2016-04-07T11:47:45.258Z,2016
2016-04-07T11:51:04.266Z,1822
2016-04-07T11:54:12.355Z,1752
2016-04-07T11:57:15.050Z,1714
2016-04-07T12:00:25.230Z,1768
2016-04-07T12:03:38.238Z,1887
2016-04-07T12:06:49.199Z,1998
2016-04-07T12:10:08.004Z,1652
2016-04-07T12:13:09.922Z,1950
2016-04-07T12:16:20.711Z,2440
2016-04-07T12:19:30.984Z,2277
2016-04-07T12:22:43.258Z,2172
2016-04-07T12:25:52.735Z,2090
2016-04-07T12:29:11.355Z,2900
2016-04-07T12:32:13.004Z,3377
2016-04-07T12:35:24.981Z,3574
2016-04-07T12:38:37.270Z,3043
2016-04-07T12:41:49.684Z,3318
2016-04-07T12:45:08.271Z,3448
2016-04-07T12:48:10.078Z,4164
2016-04-07T12:51:22.789Z,3858
2016-04-07T12:54:35.578Z,3265
2016-04-07T12:57:48.308Z,2495
2016-04-07T13:01:06.691Z,3018
2016-04-07T13:04:08.480Z,1818
2016-04-07T13:07:18.429Z,2247
2016-04-07T13:10:31.046Z,2610
2016-04-07T13:13:43.477Z,1809
2016-04-07T13:16:54.031Z,1268
2016-04-07T13:20:09.495Z,971
2016-04-07T13:23:11.113Z,1201
2016-04-07T13:26:21.386Z,1644
2016-04-07T13:29:33.493Z,1374
2016-04-07T13:32:42.908Z,1509
2016-04-07T13:35:53.415Z,1607
2016-04-07T13:39:11.598Z,1392
2016-04-07T13:42:12.997Z,1136
2016-04-07T13:45:25.286Z,1080
2016-04-07T13:48:35.419Z,2776
2016-04-07T13:51:47.489Z,3610
2016-04-07T13:55:04.498Z,3193
2016-04-07T13:58:11.852Z,1924
2016-04-07T14:01:15.299Z,1971
2016-04-07T14:04:21.899Z,2884
2016-04-07T14:07:34.579Z,3140
2016-04-07T14:10:46.401Z,3475
2016-04-07T14:14:04.846Z,3049
2016-04-07T14:17:12.387Z,5621
2016-04-07T14:20:13.911Z,5816
2016-04-07T14:23:26.607Z,5426
2016-04-07T14:26:39.334Z,4174
2016-04-07T14:29:48.702Z,3224
2016-04-07T14:33:07.335Z,2780
2016-04-07T14:36:08.935Z,2702
2016-04-07T14:39:21.275Z,2667
2016-04-07T14:42:30.221Z,2639
2016-04-07T14:45:39.478Z,2619
2016-04-07T14:48:50.799Z,2596
2016-04-07T14:52:09.073Z,2583
2016-04-07T14:55:10.552Z,2559
2016-04-07T14:58:19.357Z,2537
2016-04-07T15:01:27.866Z,2543
2016-04-07T15:04:36.280Z,2510
2016-04-07T15:07:45.725Z,2490
2016-04-07T15:10:53.576Z,2493
2016-04-07T15:14:08.382Z,2675
2016-04-07T15:17:09.764Z,2501
2016-04-07T15:20:22.119Z,2416
2016-04-07T15:23:34.565Z,2382
2016-04-07T15:26:46.916Z,2365
2016-04-07T15:30:04.785Z,2489
2016-04-07T15:33:12.374Z,2356
2016-04-07T15:36:13.693Z,2306
2016-04-07T15:39:24.186Z,2262
2016-04-07T15:42:34.335Z,2275
2016-04-07T15:45:46.561Z,2190
2016-04-07T15:48:56.914Z,2157
2016-04-07T15:52:09.219Z,2450
2016-04-07T15:55:19.292Z,2163
2016-04-07T15:58:28.378Z,1977
2016-04-07T16:01:41.089Z,1931
2016-04-07T16:04:52.097Z,2024
2016-04-07T16:08:10.262Z,1562
2016-04-07T16:11:11.738Z,2085
2016-04-07T16:14:23.109Z,1864
2016-04-07T16:17:35.523Z,1374
2016-04-07T16:20:45.406Z,1419
2016-04-07T16:23:57.680Z,1397
2016-04-07T16:27:08.797Z,1356
2016-04-07T16:30:21.136Z,1063
2016-04-07T16:33:29.846Z,1138
2016-04-07T16:36:42.293Z,1435
2016-04-07T16:39:53.379Z,1480
2016-04-07T16:43:08.685Z,1387
2016-04-07T16:46:10.208Z,1555
2016-04-07T16:49:21.593Z,739
2016-04-07T16:52:34.195Z,718
2016-04-07T16:55:44.766Z,1284
2016-04-07T16:58:55.086Z,1243
2016-04-07T17:02:13.469Z,1184
2016-04-07T17:05:14.743Z,1132
2016-04-07T17:08:26.696Z,1059
2016-04-07T17:11:38.688Z,987
2016-04-07T17:14:51.321Z,913
2016-04-07T17:18:09.642Z,840
2016-04-07T17:21:11.042Z,772
2016-04-07T17:24:23.119Z,699
2016-04-07T17:27:36.347Z,630
2016-04-07T17:30:47.636Z,559
2016-04-07T17:34:05.924Z,491
2016-04-07T17:37:13.534Z,420
2016-04-07T17:40:15.167Z,357
2016-04-07T17:43:27.459Z,290
2016-04-07T17:46:40.029Z,231
2016-04-07T17:49:50.820Z,177
2016-04-07T17:53:09.390Z,133
2016-04-07T17:56:12.975Z,96
2016-04-07T17:59:20.627Z,67
2016-04-07T18:02:30.947Z,45
2016-04-07T18:05:44.003Z,28
2016-04-07T18:08:51.526Z,17
2016-04-07T18:12:10.004Z,10
2016-04-07T18:15:11.324Z,5
2016-04-07T18:18:23.791Z,3
2016-04-07T18:21:33.737Z,2
2016-04-07T18:24:46.105Z,1
2016-04-07T18:27:58.597Z,0
2016-04-07T18:31:09.444Z,0
2016-04-07T18:34:21.147Z,0
2016-04-07T18:37:33.438Z,0
2016-04-07T18:40:45.873Z,0
2016-04-07T18:43:55.505Z,0
2016-04-07T18:47:11.754Z,0
2016-04-07T18:50:13.029Z,0
2016-04-07T18:53:24.718Z,1
2016-04-07T18:56:36.272Z,1
2016-04-07T18:59:47.561Z,2
2016-04-07T19:02:57.554Z,2
2016-04-07T19:06:14.108Z,2
2016-04-07T19:09:15.398Z,2
2016-04-07T19:12:27.628Z,2
2016-04-07T19:15:37.010Z,2
2016-04-07T19:18:49.221Z,2
2016-04-07T19:21:58.745Z,2
2016-04-07T19:25:10.581Z,2
2016-04-07T19:28:23.292Z,2
2016-04-07T19:31:35.554Z,2
2016-04-07T19:34:47.843Z,2
2016-04-07T19:37:57.898Z,2
2016-04-07T19:41:15.031Z,2
2016-04-07T19:44:16.133Z,2
2016-04-07T19:47:28.034Z,2
2016-04-07T19:50:40.276Z,2
2016-04-07T19:53:52.629Z,2
2016-04-07T19:57:10.683Z,2
2016-04-07T20:00:11.801Z,2
2016-04-07T20:03:24.042Z,2
2016-04-07T20:06:36.085Z,2
2016-04-07T20:09:44.844Z,2
2016-04-07T20:12:57.117Z,2
2016-04-07T20:16:15.328Z,2
2016-04-07T20:19:16.508Z,2
2016-04-07T20:22:27.704Z,2
2016-04-07T20:25:39.871Z,2
2016-04-07T20:28:51.957Z,2
2016-04-07T20:32:00.449Z,2
2016-04-07T20:35:12.520Z,2
2016-04-07T20:38:22.387Z,2
2016-04-07T20:41:34.617Z,2
2016-04-07T20:44:46.859Z,2
2016-04-07T20:47:59.086Z,2
2016-04-07T20:51:17.157Z,2
2016-04-07T20:54:18.430Z,2
2016-04-07T20:57:30.766Z,2
2016-04-07T21:00:39.590Z,2
2016-04-07T21:03:51.574Z,2
2016-04-07T21:07:09.551Z,2
2016-04-07T21:10:16.903Z,2
2016-04-07T21:13:18.099Z,2
2016-04-07T21:16:32.453Z,2
2016-04-07T21:19:38.008Z,2
2016-04-07T21:22:46.250Z,2
2016-04-07T21:25:58.274Z,2
2016-04-07T21:29:16.095Z,2
2016-04-07T21:32:17.274Z,2
2016-04-07T21:35:25.846Z,2
2016-04-07T21:38:37.825Z,2
2016-04-07T21:41:46.786Z,2
2016-04-07T21:44:57.200Z,2
2016-04-07T21:48:15.428Z,2
2016-04-07T21:51:16.639Z,2
2016-04-07T21:54:26.255Z,2
2016-04-07T21:57:35.641Z,2
2016-04-07T22:00:47.665Z,2
2016-04-07T22:03:59.720Z,2
2016-04-07T22:07:17.400Z,2
2016-04-07T22:10:18.784Z,2
2016-04-07T22:13:27.526Z,2
2016-04-07T22:16:37.005Z,2
2016-04-07T22:19:49.247Z,2
2016-04-07T22:22:58.803Z,2
2016-04-07T22:26:13.935Z,2
2016-04-07T22:29:14.646Z,2
2016-04-07T22:32:26.420Z,2
2016-04-07T22:35:37.041Z,2
2016-04-07T22:38:48.783Z,2
2016-04-07T22:41:57.384Z,2
2016-04-07T22:45:15.112Z,2
2016-04-07T22:48:15.964Z,2
2016-04-07T22:51:24.425Z,5
2016-04-07T22:54:36.076Z,5
2016-04-07T22:57:46.663Z,5
2016-04-07T23:00:58.545Z,5
2016-04-07T23:04:16.256Z,5
2016-04-07T23:07:17.014Z,5
2016-04-07T23:10:26.773Z,5
2016-04-07T23:13:34.642Z,5
2016-04-07T23:16:45.150Z,5
2016-04-07T23:19:56.315Z,5
2016-04-07T23:23:14.011Z,5
2016-04-07T23:26:14.675Z,5
2016-04-07T23:29:26.526Z,5
2016-04-07T23:32:38.491Z,5
2016-04-07T23:35:48.140Z,5
2016-04-07T23:38:59.965Z,5
2016-04-07T23:42:17.911Z,5
2016-04-07T23:45:18.903Z,5
2016-04-07T23:48:30.411Z,5
2016-04-07T23:51:40.468Z,5
2016-04-07T23:54:49.883Z,5
2016-04-07T23:58:02.360Z,5
